Time;durP1;ratioP1;P1;durP2;ratioP2;P2;SDS_P1;SDS_P2;PMS_P1;PMS_P2;Temp;Humidity;BMP_temperature;BMP_pressure;BME280_temperature;BME280_humidity;BME280_pressure;Samples;Min_cycle;Max_cycle;Signal;HPM_P1;HPM_P2
2021/06/26 07:35:36;;;;;;;12.60;5.97;;;;;;;29.05;53.91;99730.34;1726749;81;21104;-86
2021/06/26 07:38:02;;;;;;;10.68;6.17;;;;;;;28.97;54.03;99738.44;1668851;83;21099;-85
2021/06/26 07:40:30;;;;;;;11.63;5.70;;;;;;;28.99;53.97;99732.19;1702826;81;21740;-84
2021/06/26 07:42:56;;;;;;;10.15;5.47;;;;;;;29.07;54.32;99727.64;1728808;80;21027;-88
2021/06/26 07:45:23;;;;;;;9.85;5.70;;;;;;;29.10;53.05;99718.68;1715548;82;21329;-84
2021/06/26 07:47:49;;;;;;;13.78;6.03;;;;;;;29.07;53.63;99718.13;1680567;83;21739;-84
2021/06/26 07:50:16;;;;;;;12.58;5.72;;;;;;;29.16;54.61;99717.11;1711278;81;21016;-83
2021/06/26 07:52:42;;;;;;;13.62;5.55;;;;;;;29.31;54.01;99721.30;1761239;80;21806;-85
2021/06/26 07:55:09;;;;;;;10.15;5.50;;;;;;;29.43;53.82;99715.66;1751766;78;21527;-85
2021/06/26 07:57:36;;;;;;;15.23;5.67;;;;;;;29.50;52.95;99711.39;1748670;80;21036;-85
2021/06/26 08:00:06;;;;;;;10.40;5.53;;;;;;;29.56;53.37;99724.78;1755874;80;21456;-82
2021/06/26 08:02:35;;;;;;;11.65;5.80;;;;;;;29.56;53.37;99724.78;1735183;80;21847;-85
2021/06/26 08:05:02;;;;;;;9.95;5.50;;;;;;;29.56;52.60;99726.14;1755502;80;21876;-81
2021/06/26 08:07:30;;;;;;;13.38;5.85;;;;;;;29.54;52.88;99723.41;1675472;83;21113;-83
2021/06/26 08:09:57;;;;;;;14.90;5.80;;;;;;;29.51;52.75;99715.20;1753052;80;21041;-85
2021/06/26 08:12:23;;;;;;;15.38;5.50;;;;;;;29.55;53.53;99710.89;1757873;80;21502;-83
2021/06/26 08:14:51;;;;;;;15.40;6.03;;;;;;;29.65;53.49;99699.25;1755055;80;21577;-85
2021/06/26 08:17:19;;;;;;;12.95;5.05;;;;;;;29.75;53.43;99699.31;1747744;80;21827;-84
2021/06/26 08:19:48;;;;;;;9.30;4.87;;;;;;;29.85;52.99;99699.36;1715145;82;21063;-84
2021/06/26 08:22:14;;;;;;;10.68;5.03;;;;;;;29.99;53.38;99677.90;1748795;80;21105;-84
2021/06/26 08:24:41;;;;;;;11.68;5.08;;;;;;;30.23;52.71;99700.64;1744486;78;21082;-84
2021/06/26 08:27:09;;;;;;;8.85;4.80;;;;;;;30.31;51.54;99691.41;1763604;79;21066;-83
2021/06/26 08:29:36;;;;;;;12.78;4.95;;;;;;;30.31;51.54;99691.41;1720016;80;22239;-86
2021/06/26 08:32:04;;;;;;;11.05;5.58;;;;;;;30.36;51.81;99697.40;1722079;81;21070;-85
2021/06/26 08:34:30;;;;;;;9.40;5.05;;;;;;;30.40;51.57;99699.33;1741814;80;21028;-86
2021/06/26 08:36:57;;;;;;;15.18;5.00;;;;;;;30.43;51.39;99696.61;1745366;80;22479;-85
2021/06/26 08:39:24;;;;;;;12.82;4.78;;;;;;;30.46;52.07;99690.06;1749972;80;21040;-85
2021/06/26 08:41:51;;;;;;;17.02;5.20;;;;;;;30.58;51.00;99688.45;1748071;80;21805;-85
2021/06/26 08:44:18;;;;;;;9.60;4.90;;;;;;;30.63;50.75;99682.20;1715968;79;21035;-84
2021/06/26 08:46:49;;;;;;;12.75;4.50;;;;;;;30.67;50.94;99683.31;1744158;80;21389;-84
2021/06/26 08:49:16;;;;;;;13.15;4.67;;;;;;;30.76;50.80;99681.69;1665613;83;20977;-83
2021/06/26 08:51:43;;;;;;;15.20;4.90;;;;;;;30.80;49.47;99675.17;1674067;85;21165;-86
2021/06/26 08:54:16;;;;;;;11.85;4.80;;;;;;;30.78;50.10;99676.78;1706649;82;22840;-83
2021/06/26 08:56:46;;;;;;;10.82;4.47;;;;;;;30.86;49.78;99668.06;1718519;82;21052;-84
2021/06/26 08:59:12;;;;;;;10.85;4.72;;;;;;;30.96;50.10;99663.97;1720097;81;21066;-85
2021/06/26 09:01:40;;;;;;;13.35;4.72;;;;;;;31.07;50.28;99668.88;1743085;80;21080;-83
2021/06/26 09:04:09;;;;;;;9.70;4.87;;;;;;;31.18;49.64;99667.80;1740910;80;21439;-83
2021/06/26 09:06:51;;;;;;;12.80;4.70;;;;;;;31.25;49.36;99660.16;1710028;81;21808;-85
2021/06/26 09:09:35;;;;;;;14.55;5.45;;;;;;;31.27;50.25;99657.18;1731886;80;21055;-83
2021/06/26 09:12:09;;;;;;;15.93;5.20;;;;;;;31.40;49.98;99647.59;1750097;80;21232;-85
2021/06/26 09:14:37;;;;;;;14.07;5.35;;;;;;;31.49;49.25;99649.48;1746793;80;21056;-82
2021/06/26 09:17:05;;;;;;;15.40;5.00;;;;;;;31.48;48.98;99642.94;1686856;82;21184;-81
2021/06/26 09:19:33;;;;;;;7.83;4.83;;;;;;;31.55;49.60;99646.98;1749849;79;22939;-83
2021/06/26 09:22:12;;;;;;;14.05;4.62;;;;;;;31.65;48.61;99646.69;1713742;80;21055;-82
2021/06/26 09:24:43;;;;;;;8.35;4.20;;;;;;;31.67;48.96;99635.78;1720461;81;21527;-81
2021/06/26 09:27:11;;;;;;;11.40;4.42;;;;;;;31.82;48.49;99634.92;1658317;83;21109;-83
2021/06/26 09:29:53;;;;;;;12.50;4.60;;;;;;;31.92;48.51;99632.69;1730791;80;21025;-81
2021/06/26 09:32:24;;;;;;;10.65;4.40;;;;;;;31.96;47.95;99625.59;1742683;81;21806;-84
2021/06/26 09:34:51;;;;;;;12.85;4.33;;;;;;;32.04;48.55;99623.09;1743166;80;21031;-87
2021/06/26 09:37:26;;;;;;;16.50;4.37;;;;;;;32.24;49.10;99622.70;1716114;82;21067;-84
2021/06/26 09:39:55;;;;;;;12.63;4.70;;;;;;;32.34;47.53;99614.47;1731605;82;21009;-84
2021/06/26 09:42:27;;;;;;;16.25;4.47;;;;;;;32.44;48.07;99617.12;1685544;82;21515;-83
2021/06/26 09:45:06;;;;;;;10.35;4.10;;;;;;;32.57;46.90;99617.02;1708728;82;22426;-82
2021/06/26 09:47:44;;;;;;;9.73;4.15;;;;;;;32.59;46.74;99616.18;1694735;82;21111;-85
2021/06/26 09:50:23;;;;;;;8.08;4.15;;;;;;;32.56;46.62;99618.13;1671173;83;21480;-84
2021/06/26 09:52:52;;;;;;;7.15;4.12;;;;;;;32.57;46.96;99623.30;1730149;80;21081;-87
2021/06/26 09:55:28;;;;;;;7.12;4.15;;;;;;;32.66;46.54;99617.49;1739026;79;21494;-83
2021/06/26 09:57:57;;;;;;;8.10;3.80;;;;;;;32.75;45.82;99619.87;1696093;82;21834;-82
2021/06/26 10:00:28;;;;;;;11.33;3.85;;;;;;;32.79;45.47;99616.56;1695710;82;22278;-83
2021/06/26 10:02:56;;;;;;;11.10;3.95;;;;;;;32.84;45.49;99621.48;1748530;81;21094;-83
2021/06/26 10:05:22;;;;;;;9.78;4.20;;;;;;;32.96;45.69;99621.09;1715629;82;21032;-84
2021/06/26 10:07:51;;;;;;;11.10;3.95;;;;;;;33.06;45.15;99618.27;1747910;79;21100;-82
2021/06/26 10:10:24;;;;;;;10.75;4.20;;;;;;;33.18;46.15;99620.60;1756670;80;21858;-82
2021/06/26 10:12:52;;;;;;;9.23;3.83;;;;;;;33.39;46.12;99617.12;1742364;80;21048;-82
2021/06/26 10:15:23;;;;;;;14.25;4.37;;;;;;;33.58;45.23;99620.18;1742947;80;21035;-81
2021/06/26 10:17:50;;;;;;;12.23;4.33;;;;;;;33.78;44.94;99614.19;1745197;80;21294;-82
2021/06/26 10:20:18;;;;;;;10.70;4.40;;;;;;;34.03;44.79;99615.82;1742348;80;21541;-81
2021/06/26 10:22:48;;;;;;;15.23;4.12;;;;;;;34.21;43.84;99608.16;1731157;80;22448;-81
2021/06/26 10:25:15;;;;;;;9.78;4.37;;;;;;;34.33;43.68;99609.08;1733547;80;21439;-82
2021/06/26 10:27:42;;;;;;;8.63;4.37;;;;;;;34.44;43.98;99600.42;1745701;80;21055;-80
2021/06/26 10:30:13;;;;;;;16.42;4.25;;;;;;;34.60;43.86;99601.55;1738894;80;20997;-82
2021/06/26 10:32:55;;;;;;;8.30;3.77;;;;;;;34.73;42.23;99608.45;1723240;81;21400;-82
2021/06/26 10:35:27;;;;;;;15.33;4.37;;;;;;;34.80;41.99;99600.40;1737835;80;21848;-85
2021/06/26 10:38:11;;;;;;;12.40;3.70;;;;;;;34.83;42.33;99607.45;1741336;80;21398;-86
2021/06/26 10:40:55;;;;;;;9.00;3.80;;;;;;;34.92;41.72;99608.43;1722800;79;21001;-85
2021/06/26 10:43:29;;;;;;;16.57;4.08;;;;;;;35.06;41.91;99611.22;1733885;80;21653;-84
2021/06/26 10:46:12;;;;;;;7.33;3.80;;;;;;;35.20;41.22;99613.41;1741502;80;21462;-76
2021/06/26 10:48:41;;;;;;;14.30;3.98;;;;;;;35.21;41.95;99609.55;1732483;79;21857;-80
2021/06/26 10:51:09;;;;;;;10.88;4.60;;;;;;;35.36;42.24;99609.02;1744117;80;21419;-81
2021/06/26 10:53:39;;;;;;;9.95;4.20;;;;;;;35.59;42.00;99608.02;1741743;81;21554;-78
2021/06/26 10:56:14;;;;;;;8.68;3.70;;;;;;;35.77;40.53;99607.08;1739458;80;21076;-77
2021/06/26 10:58:43;;;;;;;6.37;3.80;;;;;;;35.65;39.60;99608.17;1721518;81;21090;-76
2021/06/26 11:01:22;;;;;;;14.15;3.95;;;;;;;35.69;41.18;99610.55;1714548;82;21865;-80
2021/06/26 11:03:53;;;;;;;11.20;4.10;;;;;;;35.88;40.46;99608.27;1698293;82;21611;-77
2021/06/26 11:06:30;;;;;;;13.98;3.80;;;;;;;35.91;39.99;99603.55;1727633;80;21127;-77
2021/06/26 11:09:11;;;;;;;8.30;3.60;;;;;;;35.91;40.33;99607.67;1678960;83;21522;-84
2021/06/26 11:11:40;;;;;;;9.75;3.83;;;;;;;35.99;39.64;99602.80;1718239;82;21064;-81
2021/06/26 11:14:19;;;;;;;12.30;4.17;;;;;;;35.93;39.71;99602.67;1732735;81;21889;-83
2021/06/26 11:16:54;;;;;;;11.45;3.95;;;;;;;35.97;39.39;99596.23;1720749;80;21004;-85
2021/06/26 11:19:23;;;;;;;7.85;3.70;;;;;;;36.10;40.23;99604.22;1707410;82;21618;-81
2021/06/26 11:21:52;;;;;;;11.08;3.80;;;;;;;36.31;39.92;99594.93;1728800;80;21055;-84
2021/06/26 11:24:19;;;;;;;16.20;4.25;;;;;;;36.54;39.57;99594.39;1733091;80;21069;-83
2021/06/26 11:26:54;;;;;;;7.55;3.50;;;;;;;36.79;39.12;99599.83;1753760;79;21778;-83
2021/06/26 11:29:36;;;;;;;8.75;3.83;;;;;;;37.03;38.85;99593.98;1736788;80;21643;-80
2021/06/26 11:32:06;;;;;;;;;;;;;;;37.16;37.15;99591.16;1727843;80;21156;-80
2021/06/26 11:34:33;;;;;;;9.90;3.98;;;;;;;37.17;37.17;99589.22;1719367;80;20655;-81
2021/06/26 11:37:06;;;;;;;9.30;3.77;;;;;;;37.16;37.03;99590.34;1746040;80;21020;-80
2021/06/26 11:39:34;;;;;;;11.22;3.80;;;;;;;37.14;37.54;99592.02;1743205;80;21531;-79
2021/06/26 11:42:01;;;;;;;9.40;4.10;;;;;;;37.11;37.20;99589.09;1741406;80;22228;-81
2021/06/26 11:44:38;;;;;;;9.63;3.72;;;;;;;37.19;37.50;99580.06;1736963;80;21043;-81
2021/06/26 11:47:07;;;;;;;7.78;3.70;;;;;;;37.40;37.03;99583.08;1745233;79;21547;-80
2021/06/26 11:49:42;;;;;;;8.70;3.72;;;;;;;37.42;38.21;99580.25;1703207;82;21032;-80
2021/06/26 11:52:10;;;;;;;9.75;4.10;;;;;;;37.66;37.73;99577.09;1686011;83;21830;-83
2021/06/26 11:54:38;;;;;;;9.30;4.42;;;;;;;37.63;35.00;99576.33;1744663;80;21182;-82
2021/06/26 11:57:08;;;;;;;8.55;4.17;;;;;;;37.19;36.63;99578.69;1761105;80;21054;-81
2021/06/26 11:59:48;;;;;;;5.97;3.98;;;;;;;37.01;37.13;99571.48;1745120;80;21035;-80
2021/06/26 12:02:16;;;;;;;10.70;4.25;;;;;;;36.92;37.32;99575.56;1746034;80;21450;-81
2021/06/26 12:04:42;;;;;;;11.40;4.05;;;;;;;36.88;37.62;99575.39;1743248;79;22507;-82
2021/06/26 12:07:10;;;;;;;9.08;3.52;;;;;;;36.93;37.60;99571.11;1749850;79;21083;-84
2021/06/26 12:09:39;;;;;;;9.20;3.85;;;;;;;37.02;36.91;99567.03;1697380;82;21567;-81
2021/06/26 12:12:07;;;;;;;8.38;3.80;;;;;;;37.00;36.78;99567.10;1701136;82;21564;-84
2021/06/26 12:14:34;;;;;;;7.92;4.10;;;;;;;36.82;37.26;99555.97;1698965;82;21045;-80
2021/06/26 12:17:11;;;;;;;10.08;3.60;;;;;;;36.79;37.42;99560.73;1724908;81;21815;-80
2021/06/26 12:19:39;;;;;;;10.10;3.50;;;;;;;36.76;38.03;99559.16;1751531;80;21221;-81
2021/06/26 12:22:06;;;;;;;7.25;4.03;;;;;;;37.00;38.16;99564.35;1726923;80;21087;-83
2021/06/26 12:24:37;;;;;;;11.05;3.58;;;;;;;37.14;35.95;99558.16;1734454;80;21522;-80
2021/06/26 12:27:11;;;;;;;10.65;3.60;;;;;;;37.07;36.57;99556.45;1743326;80;21389;-79
2021/06/26 12:29:39;;;;;;;10.45;3.20;;;;;;;37.24;33.68;99550.99;1697208;82;21844;-79
2021/06/26 12:32:07;;;;;;;9.20;3.05;;;;;;;37.39;33.73;99548.41;1690574;82;21519;-79
2021/06/26 12:34:46;;;;;;;7.20;3.00;;;;;;;37.30;33.14;99547.57;1667812;83;21049;-80
2021/06/26 12:37:14;;;;;;;15.98;2.85;;;;;;;37.27;34.36;99554.50;1736332;80;21067;-80
2021/06/26 12:39:42;;;;;;;10.18;3.00;;;;;;;37.31;30.73;99549.19;1717389;81;21523;-79
2021/06/26 12:42:10;;;;;;;9.88;3.40;;;;;;;37.17;29.49;99550.09;1719134;81;21864;-79
2021/06/26 12:44:37;;;;;;;5.65;2.50;;;;;;;36.90;30.55;99551.11;1715070;82;21043;-79
2021/06/26 12:47:04;;;;;;;7.50;2.67;;;;;;;36.68;31.37;99540.94;1698899;82;21498;-78
2021/06/26 12:49:42;;;;;;;10.80;3.55;;;;;;;36.64;32.01;99548.74;1716313;81;21151;-78
2021/06/26 12:52:13;;;;;;;7.00;3.00;;;;;;;36.73;31.79;99542.73;1748538;80;21055;-80
2021/06/26 12:54:53;;;;;;;7.85;2.80;;;;;;;36.84;32.13;99549.61;1722719;81;21063;-77
2021/06/26 12:57:20;;;;;;;11.40;3.40;;;;;;;37.03;31.87;99544.44;1727843;81;21699;-77
2021/06/26 12:59:47;;;;;;;10.85;2.98;;;;;;;36.95;30.50;99546.83;1715777;82;21619;-78
2021/06/26 13:02:13;;;;;;;14.20;3.12;;;;;;;36.77;32.00;99547.02;1678709;83;21457;-77
2021/06/26 13:04:47;;;;;;;11.70;3.20;;;;;;;36.72;32.19;99543.05;1733909;80;21055;-78
2021/06/26 13:07:25;;;;;;;7.60;3.20;;;;;;;36.62;32.62;99533.12;1716334;81;21813;-80
2021/06/26 13:09:57;;;;;;;8.33;3.02;;;;;;;36.49;32.14;99538.95;1715823;82;21009;-77
2021/06/26 13:12:25;;;;;;;5.92;3.00;;;;;;;36.21;31.21;99535.50;1726898;81;21076;-78
2021/06/26 13:15:00;;;;;;;10.03;2.92;;;;;;;35.82;32.03;99538.86;1694390;83;21137;-80
2021/06/26 13:17:29;;;;;;;8.08;3.08;;;;;;;35.55;33.11;99538.34;1682159;83;21075;-80
2021/06/26 13:19:56;;;;;;;10.43;3.30;;;;;;;35.29;35.16;99534.71;1690846;83;21844;-78
2021/06/26 13:22:24;;;;;;;7.15;3.17;;;;;;;34.95;37.60;99535.13;1754461;80;21079;-77
2021/06/26 13:24:51;;;;;;;9.88;3.58;;;;;;;34.58;39.16;99532.48;1744144;80;21086;-80
2021/06/26 13:27:19;;;;;;;10.70;3.20;;;;;;;34.26;38.27;99529.13;1724298;80;21000;-79
2021/06/26 13:29:46;;;;;;;7.87;3.10;;;;;;;34.08;37.22;99526.14;1710763;81;21060;-80
2021/06/26 13:32:14;;;;;;;7.47;3.70;;;;;;;33.96;39.89;99512.62;1723166;80;22469;-81
2021/06/26 13:34:45;;;;;;;8.80;3.12;;;;;;;33.72;41.28;99513.48;1743494;80;21068;-81
2021/06/26 13:37:11;;;;;;;7.87;3.30;;;;;;;33.47;42.44;99509.16;1686385;82;21106;-80
2021/06/26 13:39:37;;;;;;;5.30;3.17;;;;;;;33.33;43.38;99507.41;1723564;80;21143;-78
2021/06/26 13:42:05;;;;;;;5.50;3.10;;;;;;;33.18;43.96;99504.30;1716143;82;21079;-78
2021/06/26 13:44:32;;;;;;;5.83;3.37;;;;;;;32.88;44.34;99499.44;1748165;80;21858;-78
2021/06/26 13:46:59;;;;;;;7.03;3.47;;;;;;;32.67;45.00;99496.08;1709863;82;21033;-78
2021/06/26 13:49:25;;;;;;;9.50;3.20;;;;;;;32.37;46.02;99486.80;1745080;81;21051;-78
2021/06/26 13:51:51;;;;;;;9.65;3.40;;;;;;;32.23;46.58;99487.15;1704357;81;21005;-78
2021/06/26 13:54:18;;;;;;;8.58;3.80;;;;;;;32.15;47.00;99476.31;1687885;82;21077;-81
2021/06/26 13:56:45;;;;;;;7.95;3.80;;;;;;;32.08;47.74;99471.71;1706847;82;22225;-79
2021/06/26 13:59:12;;;;;;;17.25;4.10;;;;;;;32.04;47.62;99471.48;1722575;81;21033;-79
2021/06/26 14:01:38;;;;;;;14.90;4.55;;;;;;;31.96;44.97;99465.25;1703632;82;21085;-80
2021/06/26 14:04:05;;;;;;;10.25;4.50;;;;;;;31.92;44.01;99472.92;1713820;82;21638;-79
2021/06/26 14:06:31;;;;;;;11.90;4.55;;;;;;;31.77;43.95;99476.03;1734703;80;21459;-80
2021/06/26 14:08:58;;;;;;;10.80;4.15;;;;;;;31.69;44.24;99477.96;1722829;81;22563;-80
2021/06/26 14:11:25;;;;;;;18.95;6.22;;;;;;;31.63;44.21;99484.53;1714414;81;21131;-80
2021/06/26 14:13:51;;;;;;;10.63;4.65;;;;;;;31.56;44.45;99493.06;1733611;81;21090;-77
2021/06/26 14:16:18;;;;;;;9.40;4.47;;;;;;;31.45;44.37;99494.73;1743783;80;21002;-77
2021/06/26 14:18:45;;;;;;;11.38;4.30;;;;;;;31.32;44.52;99486.06;1738713;80;21534;-78
2021/06/26 14:21:12;;;;;;;10.08;4.28;;;;;;;31.25;44.54;99484.17;1743760;79;21730;-78
2021/06/26 14:23:39;;;;;;;10.15;4.20;;;;;;;31.16;43.76;99481.73;1742936;80;21032;-79
2021/06/26 14:26:05;;;;;;;11.03;4.80;;;;;;;31.11;43.65;99475.49;1734525;80;21589;-78
2021/06/26 14:28:32;;;;;;;9.35;4.37;;;;;;;31.05;42.86;99473.32;1748811;80;21475;-79
2021/06/26 14:30:59;;;;;;;16.65;5.20;;;;;;;30.98;42.92;99468.70;1738952;80;21431;-80
2021/06/26 14:33:25;;;;;;;16.10;4.78;;;;;;;30.89;43.03;99460.85;1732484;80;21782;-77
2021/06/26 14:35:52;;;;;;;12.53;4.28;;;;;;;30.82;44.21;99449.41;1769167;78;21078;-78
2021/06/26 14:38:18;;;;;;;11.38;3.95;;;;;;;30.76;46.38;99452.69;1730412;80;21109;-79
2021/06/26 14:40:45;;;;;;;25.25;8.40;;;;;;;30.69;46.77;99443.97;1762301;80;21095;-78
2021/06/26 14:43:11;;;;;;;14.70;5.67;;;;;;;30.61;47.93;99431.72;1695333;82;21064;-80
2021/06/26 14:45:38;;;;;;;7.90;4.00;;;;;;;30.51;48.08;99420.84;1734785;80;21792;-80
2021/06/26 14:48:06;;;;;;;5.65;4.05;;;;;;;30.37;48.70;99418.41;1745514;79;21130;-80
2021/06/26 14:50:33;;;;;;;5.28;3.65;;;;;;;30.20;49.58;99405.07;1715952;82;21024;-80
2021/06/26 14:52:59;;;;;;;5.90;3.52;;;;;;;30.12;48.10;99399.66;1715604;82;21475;-80
2021/06/26 14:55:26;;;;;;;8.93;4.00;;;;;;;30.06;47.69;99385.73;1684524;83;21631;-80
2021/06/26 14:57:52;;;;;;;8.80;3.58;;;;;;;29.95;48.32;99380.02;1712553;82;22858;-80
2021/06/26 15:00:21;;;;;;;7.83;3.92;;;;;;;29.77;47.79;99370.49;1729736;82;21535;-79
2021/06/26 15:02:47;;;;;;;13.13;4.08;;;;;;;29.64;47.37;99381.93;1708530;81;21534;-78
2021/06/26 15:05:14;;;;;;;13.13;3.70;;;;;;;29.47;47.91;99376.70;1736508;80;21647;-79
2021/06/26 15:07:42;;;;;;;10.55;3.50;;;;;;;29.36;47.20;99378.59;1685698;82;21076;-78
2021/06/26 15:10:10;;;;;;;11.05;3.65;;;;;;;29.21;46.31;99365.48;1745539;80;21837;-81
2021/06/26 15:12:38;;;;;;;10.35;3.45;;;;;;;29.06;45.78;99371.17;1696882;82;21001;-82
2021/06/26 15:15:06;;;;;;;10.78;3.77;;;;;;;28.83;44.56;99387.08;1685375;83;21068;-81
2021/06/26 15:17:32;;;;;;;8.45;3.35;;;;;;;28.83;44.56;99387.08;1696200;82;21088;-82
2021/06/26 15:19:59;;;;;;;11.57;3.10;;;;;;;28.64;45.05;99402.48;1734114;82;21095;-82
2021/06/26 15:22:26;;;;;;;7.22;3.33;;;;;;;28.48;45.01;99402.95;1716502;82;21855;-82
2021/06/26 15:24:53;;;;;;;7.15;3.15;;;;;;;28.40;45.00;99410.23;1718546;81;21032;-82
2021/06/26 15:27:20;;;;;;;7.92;3.33;;;;;;;28.29;44.86;99413.14;1679580;83;21082;-81
2021/06/26 15:29:47;;;;;;;4.70;3.00;;;;;;;28.18;44.72;99416.27;1734239;80;21123;-81
2021/06/26 15:32:14;;;;;;;11.00;2.87;;;;;;;28.06;44.77;99408.86;1736432;80;21043;-80
2021/06/26 15:34:40;;;;;;;5.95;2.80;;;;;;;27.94;44.92;99411.21;1713684;82;22249;-81
2021/06/26 15:37:08;;;;;;;10.43;3.00;;;;;;;27.89;44.68;99408.98;1739761;80;22185;-82
2021/06/26 15:39:35;;;;;;;8.40;2.80;;;;;;;27.81;45.04;99407.58;1750166;80;21549;-81
2021/06/26 15:42:02;;;;;;;8.68;2.77;;;;;;;27.72;45.10;99408.31;1730100;81;21527;-83
2021/06/26 15:44:28;;;;;;;7.45;3.10;;;;;;;27.62;45.37;99411.17;1746901;81;21460;-83
2021/06/26 15:46:55;;;;;;;5.20;2.72;;;;;;;27.56;45.53;99421.69;1745286;80;22612;-87
2021/06/26 15:49:23;;;;;;;7.50;2.60;;;;;;;27.49;45.36;99430.55;1733605;80;21341;-87
2021/06/26 15:51:50;;;;;;;10.35;3.12;;;;;;;27.43;45.19;99439.73;1744091;80;21018;-84
2021/06/26 15:54:16;;;;;;;7.42;2.80;;;;;;;27.39;45.38;99439.40;1716729;82;21068;-87
2021/06/26 15:56:42;;;;;;;7.58;2.90;;;;;;;27.35;45.44;99441.00;1681789;83;21233;-83
2021/06/26 15:59:11;;;;;;;7.62;2.62;;;;;;;27.28;45.35;99437.65;1675071;83;22444;-77
2021/06/26 16:01:37;;;;;;;6.05;2.98;;;;;;;27.24;44.94;99448.73;1655989;85;20936;-80
2021/06/26 16:04:04;;;;;;;9.40;2.75;;;;;;;27.18;45.17;99452.45;1681220;83;21447;-80
2021/06/26 16:06:30;;;;;;;7.28;2.62;;;;;;;27.09;45.39;99456.12;1735101;82;21518;-80
2021/06/26 16:08:57;;;;;;;6.47;2.67;;;;;;;27.03;45.78;99450.92;1731787;81;21744;-77
2021/06/26 16:11:24;;;;;;;11.28;3.08;;;;;;;26.96;46.33;99450.24;1707477;81;21995;-78
2021/06/26 16:13:52;;;;;;;9.63;2.83;;;;;;;26.86;46.83;99463.66;1735435;80;21012;-82
2021/06/26 16:16:19;;;;;;;7.67;3.30;;;;;;;26.78;47.17;99477.91;1751145;79;21063;-82
2021/06/26 16:18:47;;;;;;;13.83;3.12;;;;;;;26.69;47.83;99480.76;1717146;82;21111;-78
2021/06/26 16:21:13;;;;;;;10.53;2.92;;;;;;;26.58;48.59;99474.09;1678900;83;21084;-81
2021/06/26 16:23:40;;;;;;;8.30;2.95;;;;;;;26.46;49.06;99470.13;1739235;80;21831;-82
2021/06/26 16:26:06;;;;;;;6.87;3.27;;;;;;;26.35;49.45;99465.59;1748723;80;21031;-81
2021/06/26 16:28:33;;;;;;;11.12;3.50;;;;;;;26.26;49.86;99476.02;1751318;80;21147;-81
2021/06/26 16:31:01;;;;;;;9.35;3.20;;;;;;;26.19;50.05;99474.00;1750910;80;21079;-80
2021/06/26 16:33:28;;;;;;;7.60;3.22;;;;;;;26.15;50.56;99478.24;1725406;80;21166;-83
2021/06/26 16:35:58;;;;;;;7.45;3.50;;;;;;;26.06;50.70;99479.20;1712850;82;21100;-79
2021/06/26 16:38:34;;;;;;;9.83;3.35;;;;;;;25.95;50.92;99480.07;1717225;82;21499;-81
2021/06/26 16:41:00;;;;;;;12.98;3.05;;;;;;;25.89;51.29;99481.88;1715497;81;21027;-82
2021/06/26 16:43:31;;;;;;;9.50;4.08;;;;;;;25.81;51.49;99482.80;1713664;82;21024;-82
2021/06/26 16:45:59;;;;;;;14.40;3.70;;;;;;;25.75;51.39;99483.23;1680215;84;21094;-81
2021/06/26 16:48:25;;;;;;;13.20;3.22;;;;;;;25.71;51.54;99489.38;1735907;80;21729;-80
2021/06/26 16:50:53;;;;;;;9.93;3.27;;;;;;;25.62;51.70;99482.97;1704666;81;22139;-86
2021/06/26 16:53:21;;;;;;;11.80;3.70;;;;;;;25.52;52.17;99484.13;1708121;81;21028;-80
2021/06/26 16:55:55;;;;;;;11.35;3.62;;;;;;;25.43;52.42;99484.22;1742272;80;21521;-82
2021/06/26 16:58:33;;;;;;;6.40;3.12;;;;;;;25.38;52.62;99486.80;1705352;82;21119;-83
2021/06/26 17:01:00;;;;;;;15.88;3.00;;;;;;;25.35;52.82;99492.17;1712531;82;22243;-82
2021/06/26 17:03:27;;;;;;;10.82;3.50;;;;;;;25.27;52.82;99502.00;1712028;82;21052;-83
2021/06/26 17:05:54;;;;;;;9.40;3.02;;;;;;;25.23;53.12;99508.95;1713484;82;21058;-80
2021/06/26 17:08:20;;;;;;;7.00;2.75;;;;;;;25.17;53.14;99511.25;1720704;81;21019;-81
2021/06/26 17:10:49;;;;;;;8.40;3.00;;;;;;;25.07;52.67;99512.38;1738717;80;21009;-83
2021/06/26 17:13:22;;;;;;;5.83;2.50;;;;;;;25.02;52.42;99513.11;1739319;80;21088;-81
2021/06/26 17:15:51;;;;;;;7.50;2.73;;;;;;;24.95;52.25;99526.41;1693981;81;21025;-78
2021/06/26 17:18:18;;;;;;;14.40;2.70;;;;;;;24.85;52.49;99522.95;1738807;80;21060;-81
2021/06/26 17:20:45;;;;;;;11.78;2.75;;;;;;;24.76;52.65;99520.30;1731360;81;21067;-80
2021/06/26 17:23:12;;;;;;;10.40;3.00;;;;;;;24.69;52.95;99526.34;1737320;80;21028;-82
2021/06/26 17:25:39;;;;;;;6.53;2.90;;;;;;;24.60;53.08;99524.52;1738783;80;21801;-81
2021/06/26 17:28:05;;;;;;;8.10;2.40;;;;;;;24.57;53.12;99527.69;1705081;82;21095;-80
2021/06/26 17:30:32;;;;;;;5.78;2.50;;;;;;;24.49;53.10;99525.33;1743483;80;21008;-82
2021/06/26 17:32:59;;;;;;;7.67;1.98;;;;;;;24.40;52.20;99526.20;1710827;82;21060;-81
2021/06/26 17:35:26;;;;;;;6.22;2.30;;;;;;;24.32;52.35;99533.30;1674437;83;21136;-85
2021/06/26 17:37:52;;;;;;;11.95;2.47;;;;;;;24.25;52.63;99527.15;1741884;80;21822;-81
2021/06/26 17:40:20;;;;;;;6.25;2.40;;;;;;;24.21;52.76;99533.52;1748354;80;21162;-80
2021/06/26 17:42:47;;;;;;;6.00;2.25;;;;;;;24.18;53.08;99535.34;1735912;79;21009;-83
2021/06/26 17:45:13;;;;;;;7.60;2.33;;;;;;;24.19;53.08;99540.20;1687909;83;21020;-83
2021/06/26 17:47:42;;;;;;;5.97;2.20;;;;;;;24.15;53.06;99556.05;1711790;81;21082;-83
2021/06/26 17:50:10;;;;;;;7.17;2.22;;;;;;;24.14;53.17;99556.28;1744549;80;21787;-82
2021/06/26 17:52:36;;;;;;;5.35;2.30;;;;;;;24.15;53.24;99563.31;1750975;80;21059;-82
2021/06/26 17:55:04;;;;;;;6.40;2.10;;;;;;;24.13;53.35;99560.85;1749090;80;20964;-82
2021/06/26 17:57:30;;;;;;;7.40;2.20;;;;;;;24.13;53.31;99555.98;1716175;82;21009;-77
2021/06/26 17:59:58;;;;;;;6.42;2.55;;;;;;;24.09;52.75;99541.30;1716160;82;21009;-80
2021/06/26 18:02:25;;;;;;;9.60;2.60;;;;;;;24.03;52.62;99553.84;1746581;80;21821;-79
2021/06/26 18:04:56;;;;;;;6.95;2.45;;;;;;;23.99;52.64;99556.16;1698828;82;21111;-80
2021/06/26 18:07:22;;;;;;;9.03;2.60;;;;;;;23.95;53.09;99555.51;1749888;80;21079;-75
2021/06/26 18:09:49;;;;;;;4.67;2.45;;;;;;;23.92;53.28;99558.64;1707604;82;21061;-80
2021/06/26 18:12:16;;;;;;;9.50;2.87;;;;;;;23.91;53.67;99562.39;1738081;80;20978;-77
2021/06/26 18:14:42;;;;;;;7.72;2.17;;;;;;;23.89;53.96;99561.28;1692083;82;21750;-80
2021/06/26 18:17:10;;;;;;;5.40;2.40;;;;;;;23.88;53.81;99563.68;1748424;80;21444;-78
2021/06/26 18:19:37;;;;;;;12.07;2.40;;;;;;;23.88;53.62;99569.08;1735257;80;21002;-80
2021/06/26 18:22:05;;;;;;;6.78;2.37;;;;;;;23.89;53.49;99576.64;1709078;82;21087;-78
2021/06/26 18:24:33;;;;;;;4.17;2.12;;;;;;;23.89;53.49;99574.77;1742591;80;21027;-80
2021/06/26 18:27:00;;;;;;;9.03;2.40;;;;;;;23.92;53.44;99574.83;1721919;81;21854;-77
2021/06/26 18:29:26;;;;;;;6.25;2.42;;;;;;;23.94;53.43;99587.05;1720325;81;21043;-77
2021/06/26 18:31:54;;;;;;;6.60;2.60;;;;;;;23.96;53.56;99579.55;1727871;81;21080;-78
2021/06/26 18:34:21;;;;;;;6.15;2.30;;;;;;;23.98;53.51;99576.63;1708650;82;21091;-75
2021/06/26 18:36:47;;;;;;;6.25;2.10;;;;;;;24.01;53.36;99574.80;1746188;79;21182;-75
2021/06/26 18:39:14;;;;;;;6.10;2.60;;;;;;;24.03;53.40;99582.17;1745552;80;22180;-76
2021/06/26 18:41:41;;;;;;;9.50;2.40;;;;;;;24.03;53.24;99571.38;1740131;80;21075;-81
2021/06/26 18:44:08;;;;;;;8.45;2.40;;;;;;;24.05;53.43;99573.84;1707392;81;21912;-81
2021/06/26 18:46:35;;;;;;;5.55;2.52;;;;;;;24.07;53.47;99577.13;1749260;80;21204;-81
2021/06/26 18:49:02;;;;;;;6.50;2.27;;;;;;;24.09;53.45;99576.37;1726445;80;21178;-81
2021/06/26 18:51:30;;;;;;;6.10;2.80;;;;;;;24.11;53.56;99581.82;1697177;82;22585;-79
2021/06/26 18:53:56;;;;;;;4.00;2.58;;;;;;;24.13;53.61;99585.14;1706174;81;21100;-82
2021/06/26 18:56:23;;;;;;;4.97;2.52;;;;;;;24.15;53.82;99591.65;1719062;80;21107;-83
2021/06/26 18:58:50;;;;;;;4.70;2.30;;;;;;;24.16;53.86;99593.30;1718937;81;21150;-79
2021/06/26 19:01:18;;;;;;;6.05;2.17;;;;;;;24.16;54.07;99614.34;1745638;80;21048;-80
2021/06/26 19:03:46;;;;;;;7.45;3.30;;;;;;;24.17;53.79;99641.63;1746360;80;21903;-81
2021/06/26 19:06:13;;;;;;;9.78;3.00;;;;;;;24.19;53.52;99713.72;1714515;82;21052;-76
2021/06/26 19:08:41;;;;;;;6.05;2.95;;;;;;;24.18;53.29;99733.66;1707373;81;21155;-80
2021/06/26 19:11:08;;;;;;;13.22;3.10;;;;;;;24.07;53.26;99737.13;1743882;80;21025;-80